Battleview, North Dakota
Current Conditions -  °F | °C
As of 8:55 AM on Saturday 20 Dec 2014 (Local Time) from KD60 Reporting Station
Overcast Overcast  
Wind Chill: 18°   Ceiling: 4500
Heat Index: 18°   Visibility: 8mi
Dew Point: 18°   Wind: 0mph
Humidity: 100%   Direction: NA
Pressure: 29.86"   Gusts: NA
Location:  48.6287°N, 102.589°W
Report Text: KD60 201455Z AUTO 00000KT 8SM BKN045 BKN055 OVC065 M08/M08 A2986 RMK AO2
Loading
Personal Weather Stations






























Interactive Weather Map New forecast layout! Learn more

10-Day Weather Forecast

Advertisements
Track Severe Weather on mobile